Time;durP1;ratioP1;P1;durP2;ratioP2;P2;SDS_P1;SDS_P2;PMS_P1;PMS_P2;Temp;Humidity;BMP_temperature;BMP_pressure;BME280_temperature;BME280_humidity;BME280_pressure;Samples;Min_cycle;Max_cycle;Signal;HPM_P1;HPM_P2
2023/12/19 00:00:57;;;;;;;57.17;4.30;;;;;;;;;;5030901;28;20223;-73
2023/12/19 00:03:24;;;;;;;56.80;4.00;;;;;;;;;;5030821;28;20253;-73
2023/12/19 00:05:51;;;;;;;56.40;3.28;;;;;;;;;;5030987;28;20204;-73
2023/12/19 00:08:18;;;;;;;56.30;3.00;;;;;;;;;;5031020;28;20583;-73
2023/12/19 00:10:46;;;;;;;56.40;3.00;;;;;;;;;;5030847;28;20209;-74
2023/12/19 00:13:15;;;;;;;56.47;3.05;;;;;;;;;;5030607;28;20731;-73
2023/12/19 00:15:42;;;;;;;57.25;3.45;;;;;;;;;;5031046;28;20207;-73
2023/12/19 00:18:09;;;;;;;56.30;3.22;;;;;;;;;;5030816;28;20203;-73
2023/12/19 00:20:36;;;;;;;57.30;4.10;;;;;;;;;;5030875;28;20691;-73
2023/12/19 00:23:03;;;;;;;56.67;3.40;;;;;;;;;;5030792;28;20223;-74
2023/12/19 00:25:31;;;;;;;56.40;3.25;;;;;;;;;;5030990;28;20211;-73
2023/12/19 00:27:59;;;;;;;57.17;3.92;;;;;;;;;;5039125;28;20227;-73
2023/12/19 00:30:27;;;;;;;56.58;3.15;;;;;;;;;;5031369;28;20606;-74
2023/12/19 00:32:55;;;;;;;56.38;2.90;;;;;;;;;;5030681;28;20230;-73
2023/12/19 00:35:22;;;;;;;56.75;3.42;;;;;;;;;;5031221;28;20207;-73
2023/12/19 00:37:49;;;;;;;57.17;3.20;;;;;;;;;;5034809;28;20206;-74
2023/12/19 00:40:16;;;;;;;56.50;3.30;;;;;;;;;;5035002;28;20594;-72
2023/12/19 00:42:44;;;;;;;60.70;5.05;;;;;;;;;;5034403;28;20224;-72
2023/12/19 00:45:11;;;;;;;56.50;3.00;;;;;;;;;;5034539;28;20578;-72
2023/12/19 00:47:40;;;;;;;56.47;3.10;;;;;;;;;;5040155;28;20227;-72
2023/12/19 00:50:08;;;;;;;56.58;3.15;;;;;;;;;;5048116;28;20236;-72
2023/12/19 00:52:35;;;;;;;57.08;4.30;;;;;;;;;;5034094;28;20761;-72
2023/12/19 00:55:03;;;;;;;56.90;3.80;;;;;;;;;;5034381;28;20294;-72
2023/12/19 00:57:30;;;;;;;56.40;3.00;;;;;;;;;;5039002;28;20686;-72
2023/12/19 00:59:57;;;;;;;56.70;3.30;;;;;;;;;;5042359;28;20727;-74
2023/12/19 01:02:24;;;;;;;56.47;3.05;;;;;;;;;;5034926;28;20226;-72
2023/12/19 01:04:52;;;;;;;56.47;3.10;;;;;;;;;;5044999;28;20205;-72
2023/12/19 01:07:19;;;;;;;56.47;2.95;;;;;;;;;;5035685;28;20204;-72
2023/12/19 01:09:47;;;;;;;56.58;3.28;;;;;;;;;;5057920;28;20224;-73
2023/12/19 01:12:14;;;;;;;56.70;3.20;;;;;;;;;;5035776;28;20237;-74
2023/12/19 01:14:41;;;;;;;56.50;3.20;;;;;;;;;;5034223;28;20203;-73
2023/12/19 01:17:08;;;;;;;58.40;4.68;;;;;;;;;;5046463;28;20214;-73
2023/12/19 01:19:35;;;;;;;56.53;3.20;;;;;;;;;;5034170;28;20287;-74
2023/12/19 01:22:04;;;;;;;56.80;3.58;;;;;;;;;;5033624;28;20234;-74
2023/12/19 01:24:31;;;;;;;56.50;3.42;;;;;;;;;;5033871;28;20203;-74
2023/12/19 01:26:58;;;;;;;56.70;3.30;;;;;;;;;;5033823;28;20413;-74
2023/12/19 01:29:25;;;;;;;56.28;3.00;;;;;;;;;;5045602;28;20720;-74
2023/12/19 01:31:53;;;;;;;56.80;3.85;;;;;;;;;;5053863;28;20237;-74
2023/12/19 01:34:20;;;;;;;56.55;3.20;;;;;;;;;;5050743;28;20560;-74
2023/12/19 01:36:48;;;;;;;57.17;3.63;;;;;;;;;;5033624;28;20294;-75
2023/12/19 01:39:16;;;;;;;56.60;3.38;;;;;;;;;;5033521;28;20262;-74
2023/12/19 01:41:43;;;;;;;56.50;3.22;;;;;;;;;;5033133;28;20227;-74
2023/12/19 01:44:18;;;;;;;56.63;3.42;;;;;;;;;;5033429;28;20672;-74
2023/12/19 01:46:45;;;;;;;56.55;3.55;;;;;;;;;;5033182;28;20216;-73
2023/12/19 01:49:12;;;;;;;56.45;3.28;;;;;;;;;;5033335;28;20231;-74
2023/12/19 01:51:39;;;;;;;57.60;4.80;;;;;;;;;;5033075;28;20231;-74
2023/12/19 01:54:08;;;;;;;56.47;3.25;;;;;;;;;;5033200;28;20219;-73
2023/12/19 01:56:37;;;;;;;56.40;3.20;;;;;;;;;;5033216;28;20696;-74
2023/12/19 01:59:06;;;;;;;56.50;3.13;;;;;;;;;;5033318;28;20580;-73
2023/12/19 02:01:34;;;;;;;56.10;3.10;;;;;;;;;;5033099;28;20647;-73
2023/12/19 02:04:02;;;;;;;56.30;3.25;;;;;;;;;;5033097;28;20237;-71
2023/12/19 02:06:29;;;;;;;56.60;3.45;;;;;;;;;;5033600;28;20203;-73
2023/12/19 02:08:56;;;;;;;56.60;3.45;;;;;;;;;;5033232;28;20227;-72
2023/12/19 02:11:23;;;;;;;56.90;3.10;;;;;;;;;;5032822;28;20206;-73
2023/12/19 02:13:52;;;;;;;56.38;3.45;;;;;;;;;;5033117;28;20226;-73
2023/12/19 02:16:19;;;;;;;56.35;3.10;;;;;;;;;;5032922;28;20234;-73
2023/12/19 02:18:46;;;;;;;56.38;3.22;;;;;;;;;;5032870;28;20202;-73
2023/12/19 02:21:13;;;;;;;56.47;3.00;;;;;;;;;;5032356;28;20218;-74
2023/12/19 02:23:41;;;;;;;56.40;3.40;;;;;;;;;;5032971;28;20203;-73
2023/12/19 02:26:09;;;;;;;56.17;3.10;;;;;;;;;;5032820;28;20601;-73
2023/12/19 02:28:36;;;;;;;56.47;2.92;;;;;;;;;;5032675;28;20230;-73
2023/12/19 02:31:03;;;;;;;59.05;4.47;;;;;;;;;;5032493;28;20215;-73
2023/12/19 02:33:30;;;;;;;56.28;2.90;;;;;;;;;;5032845;28;20199;-73
2023/12/19 02:35:57;;;;;;;56.75;3.90;;;;;;;;;;5040441;28;20583;-73
2023/12/19 02:38:24;;;;;;;56.30;3.00;;;;;;;;;;5032961;28;20226;-73
2023/12/19 02:40:52;;;;;;;56.50;3.35;;;;;;;;;;5032512;28;20206;-73
2023/12/19 02:43:20;;;;;;;56.40;3.47;;;;;;;;;;5032098;28;20737;-73
2023/12/19 02:45:47;;;;;;;56.30;3.30;;;;;;;;;;5032385;28;20206;-73
2023/12/19 02:48:14;;;;;;;56.17;3.50;;;;;;;;;;5032115;28;20590;-73
2023/12/19 02:50:41;;;;;;;56.40;2.90;;;;;;;;;;5032534;28;20329;-71
2023/12/19 02:53:08;;;;;;;56.78;3.90;;;;;;;;;;5031845;28;20227;-71
2023/12/19 02:55:35;;;;;;;56.28;3.13;;;;;;;;;;5037110;28;20547;-71
2023/12/19 02:58:03;;;;;;;56.28;3.10;;;;;;;;;;5049445;28;20221;-72
2023/12/19 03:00:31;;;;;;;56.80;3.92;;;;;;;;;;5043715;28;20569;-71
2023/12/19 03:02:58;;;;;;;56.35;2.80;;;;;;;;;;5051711;28;20230;-71
2023/12/19 03:05:26;;;;;;;56.28;2.90;;;;;;;;;;5051861;28;20202;-72
2023/12/19 03:07:54;;;;;;;56.30;3.28;;;;;;;;;;5051656;28;20206;-72
2023/12/19 03:10:21;;;;;;;56.20;2.70;;;;;;;;;;5052217;28;20233;-72
2023/12/19 03:12:48;;;;;;;56.30;3.03;;;;;;;;;;5051517;28;20222;-72
2023/12/19 03:15:17;;;;;;;56.28;2.72;;;;;;;;;;5051856;28;20555;-73
2023/12/19 03:17:44;;;;;;;56.47;3.45;;;;;;;;;;5051973;28;20198;-72
2023/12/19 03:20:11;;;;;;;56.78;3.95;;;;;;;;;;5051557;28;20577;-72
2023/12/19 03:22:38;;;;;;;56.45;2.90;;;;;;;;;;5051189;28;20224;-72
2023/12/19 03:25:06;;;;;;;56.45;3.28;;;;;;;;;;5051464;28;20206;-72
2023/12/19 03:27:33;;;;;;;56.20;2.70;;;;;;;;;;5051455;28;20206;-72
2023/12/19 03:30:00;;;;;;;56.08;2.70;;;;;;;;;;5051592;28;20231;-72
2023/12/19 03:32:29;;;;;;;56.17;2.92;;;;;;;;;;5051116;28;20225;-72
2023/12/19 03:34:56;;;;;;;56.20;2.92;;;;;;;;;;5051288;28;20654;-72
2023/12/19 03:37:23;;;;;;;56.35;3.05;;;;;;;;;;5051230;28;20214;-72
2023/12/19 03:39:50;;;;;;;56.28;3.08;;;;;;;;;;5051471;28;20293;-72
2023/12/19 03:42:17;;;;;;;56.13;2.90;;;;;;;;;;5050828;28;20230;-72
2023/12/19 03:44:44;;;;;;;56.45;3.22;;;;;;;;;;5051345;28;20228;-72
2023/12/19 03:47:12;;;;;;;56.17;3.00;;;;;;;;;;5051222;28;20319;-72
2023/12/19 03:49:41;;;;;;;56.38;3.40;;;;;;;;;;5050976;28;20248;-72
2023/12/19 03:52:09;;;;;;;56.38;3.03;;;;;;;;;;5050943;28;20226;-72
2023/12/19 03:54:36;;;;;;;56.30;2.95;;;;;;;;;;5051219;28;20264;-73
2023/12/19 03:57:04;;;;;;;56.40;2.90;;;;;;;;;;5051209;28;20206;-72
2023/12/19 03:59:31;;;;;;;56.28;2.70;;;;;;;;;;5031154;28;20209;-72
2023/12/19 04:01:59;;;;;;;56.45;3.15;;;;;;;;;;5030849;28;20324;-72
2023/12/19 04:04:26;;;;;;;56.38;3.13;;;;;;;;;;5030861;28;20211;-73
2023/12/19 04:06:54;;;;;;;56.47;3.03;;;;;;;;;;5031228;28;20210;-72
2023/12/19 04:09:21;;;;;;;56.58;3.35;;;;;;;;;;5031072;28;20230;-72
2023/12/19 04:11:49;;;;;;;56.30;3.00;;;;;;;;;;5030662;28;20602;-72
2023/12/19 04:14:16;;;;;;;56.08;2.60;;;;;;;;;;5030938;28;20207;-72
2023/12/19 04:16:43;;;;;;;56.65;3.33;;;;;;;;;;5030807;28;20652;-72
2023/12/19 04:19:10;;;;;;;56.33;3.10;;;;;;;;;;5030688;28;20207;-73
2023/12/19 04:21:38;;;;;;;56.08;2.80;;;;;;;;;;5030754;28;20597;-72
2023/12/19 04:24:07;;;;;;;56.55;3.30;;;;;;;;;;5030964;28;20213;-72
2023/12/19 04:26:34;;;;;;;56.50;3.53;;;;;;;;;;5031036;28;20682;-72
2023/12/19 04:29:01;;;;;;;56.40;3.00;;;;;;;;;;5030723;28;20594;-72
2023/12/19 04:31:28;;;;;;;56.47;2.97;;;;;;;;;;5030298;28;20226;-72
2023/12/19 04:33:55;;;;;;;56.33;2.70;;;;;;;;;;5030965;28;20199;-73
2023/12/19 04:36:23;;;;;;;56.65;3.40;;;;;;;;;;5030780;28;20207;-72
2023/12/19 04:38:50;;;;;;;56.28;2.80;;;;;;;;;;5030945;28;20204;-72
2023/12/19 04:41:18;;;;;;;56.38;3.10;;;;;;;;;;5030377;28;20217;-73
2023/12/19 04:43:45;;;;;;;56.47;3.20;;;;;;;;;;5030585;28;20205;-72
2023/12/19 04:46:12;;;;;;;56.47;2.85;;;;;;;;;;5030818;28;20214;-73
2023/12/19 04:48:39;;;;;;;56.60;3.22;;;;;;;;;;5030751;28;20605;-72
2023/12/19 04:51:08;;;;;;;56.28;2.95;;;;;;;;;;5030660;28;20207;-72
2023/12/19 04:53:35;;;;;;;56.95;3.30;;;;;;;;;;5030526;28;20204;-73
2023/12/19 04:56:03;;;;;;;56.55;3.25;;;;;;;;;;5030564;28;20278;-72
2023/12/19 04:58:31;;;;;;;56.28;2.90;;;;;;;;;;5030420;28;20233;-72
2023/12/19 05:00:58;;;;;;;56.17;2.70;;;;;;;;;;5049936;28;20566;-72
2023/12/19 05:03:26;;;;;;;56.40;3.25;;;;;;;;;;5031392;28;20231;-72
2023/12/19 05:05:53;;;;;;;56.33;2.90;;;;;;;;;;5030763;28;20207;-73
2023/12/19 05:08:20;;;;;;;56.58;3.50;;;;;;;;;;5030493;28;20689;-72
2023/12/19 05:10:47;;;;;;;57.78;3.90;;;;;;;;;;5043023;28;20246;-72
2023/12/19 05:13:14;;;;;;;56.33;3.00;;;;;;;;;;5030371;28;20245;-72
2023/12/19 05:15:43;;;;;;;56.40;2.72;;;;;;;;;;5030711;28;20210;-72
2023/12/19 05:18:10;;;;;;;56.35;2.67;;;;;;;;;;5030647;28;20211;-73
2023/12/19 05:20:37;;;;;;;56.28;2.80;;;;;;;;;;5030572;28;20203;-73
2023/12/19 05:23:04;;;;;;;56.28;2.90;;;;;;;;;;5032751;28;20240;-72
2023/12/19 05:25:31;;;;;;;56.67;3.50;;;;;;;;;;5033847;28;20207;-72
2023/12/19 05:27:58;;;;;;;57.53;3.47;;;;;;;;;;5035014;28;20251;-72
2023/12/19 05:30:25;;;;;;;56.47;3.75;;;;;;;;;;5033901;28;20692;-72
2023/12/19 05:32:54;;;;;;;56.47;3.10;;;;;;;;;;5046680;28;20595;-72
2023/12/19 05:35:21;;;;;;;56.88;3.45;;;;;;;;;;5033779;28;20268;-72
2023/12/19 05:37:48;;;;;;;56.28;2.90;;;;;;;;;;5033745;28;20207;-72
2023/12/19 05:40:15;;;;;;;56.40;3.10;;;;;;;;;;5033564;28;20207;-72
2023/12/19 05:42:42;;;;;;;56.70;3.15;;;;;;;;;;5033608;28;20222;-72
2023/12/19 05:45:10;;;;;;;56.30;2.90;;;;;;;;;;5033697;28;20506;-72
2023/12/19 05:47:37;;;;;;;56.38;2.95;;;;;;;;;;5045314;28;20207;-72
2023/12/19 05:50:06;;;;;;;56.95;3.80;;;;;;;;;;5053310;28;20778;-73
2023/12/19 05:52:33;;;;;;;56.35;2.85;;;;;;;;;;5052951;28;20236;-72
2023/12/19 05:55:00;;;;;;;57.00;3.88;;;;;;;;;;5053941;28;20207;-72
2023/12/19 05:57:27;;;;;;;56.42;3.03;;;;;;;;;;5053483;28;20206;-72
2023/12/19 05:59:54;;;;;;;56.40;2.90;;;;;;;;;;5053461;28;20202;-72
2023/12/19 06:02:21;;;;;;;56.40;2.90;;;;;;;;;;5052830;28;20229;-72
2023/12/19 06:04:49;;;;;;;56.42;3.10;;;;;;;;;;5053196;28;20206;-72
2023/12/19 06:07:18;;;;;;;56.90;3.50;;;;;;;;;;5052924;28;20238;-72
2023/12/19 06:09:45;;;;;;;56.22;3.03;;;;;;;;;;5053020;28;20717;-72
2023/12/19 06:12:13;;;;;;;56.50;3.30;;;;;;;;;;5052870;28;20607;-72
2023/12/19 06:14:40;;;;;;;56.38;3.17;;;;;;;;;;5052973;28;20214;-72
2023/12/19 06:17:07;;;;;;;56.40;3.00;;;;;;;;;;5053029;28;20220;-72
2023/12/19 06:19:34;;;;;;;56.20;2.80;;;;;;;;;;5052802;28;20550;-72
2023/12/19 06:22:01;;;;;;;56.47;3.15;;;;;;;;;;5052869;28;20265;-72
2023/12/19 06:24:30;;;;;;;56.35;2.95;;;;;;;;;;5052804;28;20220;-72
2023/12/19 06:26:57;;;;;;;56.38;3.08;;;;;;;;;;5052793;28;20216;-72
2023/12/19 06:29:25;;;;;;;56.42;3.25;;;;;;;;;;5052487;28;20230;-72
2023/12/19 06:31:52;;;;;;;56.47;3.28;;;;;;;;;;5052369;28;20578;-72
2023/12/19 06:34:19;;;;;;;57.40;4.45;;;;;;;;;;5051373;28;20203;-73
2023/12/19 06:36:46;;;;;;;56.28;3.20;;;;;;;;;;5052859;28;20208;-73
2023/12/19 06:39:14;;;;;;;56.30;3.35;;;;;;;;;;5052712;28;20219;-73
2023/12/19 06:41:42;;;;;;;56.40;2.90;;;;;;;;;;5052185;28;20218;-73
2023/12/19 06:44:10;;;;;;;56.10;3.20;;;;;;;;;;5052330;28;20210;-72
2023/12/19 06:46:37;;;;;;;56.28;2.95;;;;;;;;;;5052158;28;20581;-72
2023/12/19 06:49:04;;;;;;;56.40;3.10;;;;;;;;;;5052499;28;20209;-72
2023/12/19 06:51:31;;;;;;;56.47;3.20;;;;;;;;;;5051988;28;20229;-73
2023/12/19 06:53:58;;;;;;;56.40;2.90;;;;;;;;;;5052237;28;20211;-72
2023/12/19 06:56:26;;;;;;;56.90;3.67;;;;;;;;;;5052192;28;20234;-73
2023/12/19 06:58:55;;;;;;;57.50;3.55;;;;;;;;;;5052224;28;20580;-72
2023/12/19 07:01:22;;;;;;;56.28;2.70;;;;;;;;;;5051127;28;20301;-73
2023/12/19 07:03:49;;;;;;;57.20;3.65;;;;;;;;;;5047331;28;20205;-73
2023/12/19 07:06:17;;;;;;;56.28;3.10;;;;;;;;;;5032099;28;20207;-72
2023/12/19 07:08:44;;;;;;;56.17;2.80;;;;;;;;;;5039144;28;20206;-72
2023/12/19 07:11:11;;;;;;;56.50;3.67;;;;;;;;;;5031828;28;20227;-72
2023/12/19 07:13:38;;;;;;;56.17;2.80;;;;;;;;;;5031773;28;20586;-72
2023/12/19 07:16:07;;;;;;;58.05;4.65;;;;;;;;;;5037253;28;20210;-72
2023/12/19 07:18:34;;;;;;;56.35;3.47;;;;;;;;;;5032704;28;20204;-72
2023/12/19 07:21:01;;;;;;;55.95;2.75;;;;;;;;;;5031893;28;20272;-74
2023/12/19 07:23:28;;;;;;;56.30;2.83;;;;;;;;;;5031508;28;20605;-71
2023/12/19 07:25:57;;;;;;;56.28;3.03;;;;;;;;;;5041612;28;20229;-72
2023/12/19 07:28:24;;;;;;;56.60;3.83;;;;;;;;;;5031482;28;20222;-72
2023/12/19 07:30:51;;;;;;;56.40;3.10;;;;;;;;;;5031650;28;20280;-72
2023/12/19 07:33:20;;;;;;;56.55;3.25;;;;;;;;;;5032818;28;20705;-72
2023/12/19 07:35:47;;;;;;;56.28;2.83;;;;;;;;;;5047145;28;20554;-72
2023/12/19 07:38:14;;;;;;;56.30;2.90;;;;;;;;;;5035622;28;20219;-72
2023/12/19 07:40:41;;;;;;;56.28;2.90;;;;;;;;;;5031472;28;20199;-72
2023/12/19 07:43:08;;;;;;;56.35;3.13;;;;;;;;;;5031485;28;20237;-72
2023/12/19 07:45:36;;;;;;;56.17;2.47;;;;;;;;;;5031223;28;20206;-72
2023/12/19 07:48:03;;;;;;;56.20;3.10;;;;;;;;;;5031613;28;20207;-72
2023/12/19 07:50:31;;;;;;;56.33;3.22;;;;;;;;;;5030905;28;20222;-73
2023/12/19 07:52:58;;;;;;;56.00;2.60;;;;;;;;;;5030114;28;20227;-72
2023/12/19 07:55:26;;;;;;;56.25;2.83;;;;;;;;;;5030791;28;20732;-72
2023/12/19 07:57:53;;;;;;;56.88;3.42;;;;;;;;;;5030679;28;20663;-72
2023/12/19 08:00:20;;;;;;;55.97;2.72;;;;;;;;;;5030875;28;20252;-72
2023/12/19 08:02:50;;;;;;;56.50;3.47;;;;;;;;;;5030786;28;20227;-72
2023/12/19 08:05:18;;;;;;;56.10;2.95;;;;;;;;;;5031210;28;20313;-72
2023/12/19 08:07:46;;;;;;;56.10;3.05;;;;;;;;;;5032330;28;20208;-72
2023/12/19 08:10:13;;;;;;;56.08;2.80;;;;;;;;;;5032768;28;20231;-72
2023/12/19 08:12:40;;;;;;;56.08;2.63;;;;;;;;;;5033272;28;20224;-72
2023/12/19 08:15:09;;;;;;;56.08;3.00;;;;;;;;;;5032950;28;20210;-71
2023/12/19 08:17:37;;;;;;;56.17;3.00;;;;;;;;;;5032317;28;20217;-72
2023/12/19 08:20:04;;;;;;;56.20;3.35;;;;;;;;;;5032284;28;20227;-72
2023/12/19 08:22:31;;;;;;;56.00;3.05;;;;;;;;;;5034862;28;20230;-72
2023/12/19 08:25:00;;;;;;;56.30;3.00;;;;;;;;;;5034593;28;20202;-72
2023/12/19 08:27:28;;;;;;;56.33;3.33;;;;;;;;;;5035019;28;20203;-73
2023/12/19 08:29:55;;;;;;;56.25;2.80;;;;;;;;;;5035324;28;20252;-72
2023/12/19 08:32:22;;;;;;;56.22;2.95;;;;;;;;;;5034848;28;20222;-73
2023/12/19 08:34:49;;;;;;;56.40;2.90;;;;;;;;;;5043029;28;20205;-72
2023/12/19 08:37:16;;;;;;;57.13;4.20;;;;;;;;;;5034202;28;20239;-72
2023/12/19 08:39:43;;;;;;;56.83;3.60;;;;;;;;;;5034499;28;20207;-72
2023/12/19 08:42:12;;;;;;;56.35;3.00;;;;;;;;;;5033966;28;20235;-72
2023/12/19 08:44:40;;;;;;;56.17;2.85;;;;;;;;;;5033719;28;20298;-73
2023/12/19 08:47:07;;;;;;;56.78;4.45;;;;;;;;;;5030955;28;20212;-72
2023/12/19 08:49:34;;;;;;;56.50;3.13;;;;;;;;;;5030577;28;20213;-72
2023/12/19 08:52:02;;;;;;;56.00;2.90;;;;;;;;;;5030118;28;20717;-72
2023/12/19 08:54:29;;;;;;;56.60;3.22;;;;;;;;;;5031305;28;20622;-72
2023/12/19 08:56:56;;;;;;;56.58;3.30;;;;;;;;;;5037427;28;20212;-72
2023/12/19 08:59:24;;;;;;;56.47;3.40;;;;;;;;;;5037168;28;20207;-73
2023/12/19 09:01:51;;;;;;;56.30;2.90;;;;;;;;;;5040080;28;20332;-73
2023/12/19 09:04:19;;;;;;;56.20;2.92;;;;;;;;;;5040394;28;20216;-72
2023/12/19 09:06:46;;;;;;;58.15;4.35;;;;;;;;;;5042948;28;20210;-72
2023/12/19 09:09:13;;;;;;;57.60;5.18;;;;;;;;;;5049608;28;20372;-72
2023/12/19 09:11:40;;;;;;;56.63;3.55;;;;;;;;;;5045154;28;20235;-72
2023/12/19 09:14:07;;;;;;;56.65;3.80;;;;;;;;;;5034133;28;20206;-72
2023/12/19 09:16:36;;;;;;;57.22;4.53;;;;;;;;;;5033996;28;20663;-72
2023/12/19 09:19:03;;;;;;;56.28;3.20;;;;;;;;;;5034326;28;20211;-72
2023/12/19 09:21:31;;;;;;;56.88;3.33;;;;;;;;;;5033906;28;20224;-72
2023/12/19 09:23:59;;;;;;;56.17;3.10;;;;;;;;;;5034137;28;20310;-72
2023/12/19 09:26:27;;;;;;;56.05;2.60;;;;;;;;;;5033797;28;20217;-72
2023/12/19 09:28:55;;;;;;;56.25;3.05;;;;;;;;;;5033750;28;20219;-72
2023/12/19 09:31:22;;;;;;;56.65;3.78;;;;;;;;;;5033271;28;20225;-72
2023/12/19 09:33:50;;;;;;;56.10;3.10;;;;;;;;;;5034030;28;20210;-71
2023/12/19 09:36:22;;;;;;;56.30;3.00;;;;;;;;;;5033918;28;20207;-71
2023/12/19 09:38:49;;;;;;;56.47;3.20;;;;;;;;;;5045779;28;20238;-71
2023/12/19 09:41:16;;;;;;;56.15;3.22;;;;;;;;;;5053239;28;20677;-71
2023/12/19 09:43:43;;;;;;;56.15;2.70;;;;;;;;;;5053303;28;20202;-70
2023/12/19 09:46:13;;;;;;;56.33;3.10;;;;;;;;;;5053697;28;20203;-71
2023/12/19 09:48:41;;;;;;;56.28;3.00;;;;;;;;;;5053555;28;20204;-70
2023/12/19 09:51:12;;;;;;;56.47;3.40;;;;;;;;;;5053378;28;20266;-70
2023/12/19 09:53:40;;;;;;;56.27;3.13;;;;;;;;;;5053269;28;20452;-71
2023/12/19 09:56:09;;;;;;;56.07;2.90;;;;;;;;;;5053219;28;20468;-70
2023/12/19 09:58:37;;;;;;;56.30;3.50;;;;;;;;;;5053454;28;20537;-71
2023/12/19 10:01:04;;;;;;;56.60;3.57;;;;;;;;;;5053333;28;20461;-71
2023/12/19 10:03:31;;;;;;;56.50;3.80;;;;;;;;;;5053029;28;20446;-71
2023/12/19 10:05:58;;;;;;;56.40;2.73;;;;;;;;;;5053063;28;20451;-71
2023/12/19 10:08:27;;;;;;;55.90;2.50;;;;;;;;;;5052801;28;20447;-71
2023/12/19 10:10:54;;;;;;;58.10;3.20;;;;;;;;;;5052788;28;20484;-71
2023/12/19 10:13:28;;;;;;;56.00;2.43;;;;;;;;;;5052932;28;20910;-71
2023/12/19 10:16:02;;;;;;;56.70;3.10;;;;;;;;;;5053060;28;20803;-71
2023/12/19 10:18:29;;;;;;;57.90;2.73;;;;;;;;;;5051767;28;20830;-72
2023/12/19 10:21:04;;;;;;;56.40;3.00;;;;;;;;;;5039707;28;20807;-71
2023/12/19 10:23:33;;;;;;;56.53;2.90;;;;;;;;;;5041244;28;20501;-71
2023/12/19 10:26:00;;;;;;;55.90;2.50;;;;;;;;;;5047243;28;20455;-72
2023/12/19 10:28:28;;;;;;;56.93;3.90;;;;;;;;;;5046782;28;20466;-72
2023/12/19 10:31:09;;;;;;;55.77;2.53;;;;;;;;;;5040446;28;20863;-72
2023/12/19 10:33:41;;;;;;;57.27;4.00;;;;;;;;;;5032442;28;20522;-71
2023/12/19 10:36:08;;;;;;;56.50;3.30;;;;;;;;;;5040063;28;20455;-72
2023/12/19 10:38:47;;;;;;;56.60;3.13;;;;;;;;;;5051199;28;20455;-71
2023/12/19 10:41:22;;;;;;;56.30;3.00;;;;;;;;;;5032362;28;20446;-72
2023/12/19 10:43:50;;;;;;;56.03;2.80;;;;;;;;;;5032417;28;20451;-71
2023/12/19 10:46:18;;;;;;;56.20;2.60;;;;;;;;;;5044760;28;20466;-72
2023/12/19 10:48:46;;;;;;;56.37;2.90;;;;;;;;;;5049463;28;20477;-72
2023/12/19 10:51:16;;;;;;;56.67;3.13;;;;;;;;;;5032308;28;20503;-72
2023/12/19 10:53:48;;;;;;;56.50;3.17;;;;;;;;;;5042006;28;20451;-71
2023/12/19 10:56:17;;;;;;;57.07;3.83;;;;;;;;;;5041501;28;20577;-72
2023/12/19 10:58:47;;;;;;;56.20;2.80;;;;;;;;;;5032942;28;20446;-72
2023/12/19 11:01:15;;;;;;;56.87;3.90;;;;;;;;;;5031918;28;20447;-73
2023/12/19 11:03:45;;;;;;;56.53;3.20;;;;;;;;;;5040393;28;20452;-72
2023/12/19 11:06:17;;;;;;;56.37;2.83;;;;;;;;;;5032561;28;20464;-72
2023/12/19 11:08:48;;;;;;;56.20;2.70;;;;;;;;;;5038965;28;20454;-72
2023/12/19 11:11:20;;;;;;;57.07;2.97;;;;;;;;;;5044280;28;20501;-72
2023/12/19 11:13:48;;;;;;;56.97;3.23;;;;;;;;;;5032501;28;20964;-72
2023/12/19 11:16:21;;;;;;;56.40;3.40;;;;;;;;;;5044253;28;20466;-72
2023/12/19 11:18:52;;;;;;;56.40;3.37;;;;;;;;;;5036821;28;20535;-72
2023/12/19 11:21:21;;;;;;;56.10;2.40;;;;;;;;;;5043708;28;20828;-72
2023/12/19 11:23:51;;;;;;;57.67;3.40;;;;;;;;;;5032016;28;20455;-72
2023/12/19 11:26:23;;;;;;;56.70;3.03;;;;;;;;;;5036269;28;20454;-72
2023/12/19 11:28:50;;;;;;;56.40;2.60;;;;;;;;;;5031460;28;20458;-72
2023/12/19 11:31:30;;;;;;;55.70;2.50;;;;;;;;;;5031137;28;20495;-72
2023/12/19 11:33:59;;;;;;;56.90;3.37;;;;;;;;;;5043864;28;20499;-72
2023/12/19 11:36:26;;;;;;;59.10;3.70;;;;;;;;;;5035087;28;20904;-72
2023/12/19 11:39:17;;;;;;;56.73;3.20;;;;;;;;;;5031583;28;20449;-72
2023/12/19 11:41:45;;;;;;;58.83;3.43;;;;;;;;;;5030956;28;20872;-72
2023/12/19 11:44:32;;;;;;;56.47;2.83;;;;;;;;;;5031526;28;20452;-72
2023/12/19 11:47:15;;;;;;;56.80;2.30;;;;;;;;;;5044085;28;20449;-72
2023/12/19 11:49:42;;;;;;;56.57;3.33;;;;;;;;;;5051370;28;20940;-71
2023/12/19 11:52:10;;;;;;;58.97;3.63;;;;;;;;;;5047296;28;20507;-72
2023/12/19 11:54:37;;;;;;;56.37;2.43;;;;;;;;;;5031127;28;20451;-72
2023/12/19 11:57:06;;;;;;;56.67;2.70;;;;;;;;;;5033350;28;20447;-72
2023/12/19 11:59:48;;;;;;;57.17;2.70;;;;;;;;;;5038697;28;20458;-72
2023/12/19 12:02:27;;;;;;;57.20;4.33;;;;;;;;;;5038355;28;21008;-72
2023/12/19 12:05:03;;;;;;;56.77;2.47;;;;;;;;;;5031717;28;20441;-70
2023/12/19 12:07:30;;;;;;;58.13;3.10;;;;;;;;;;5038886;28;20453;-70
2023/12/19 12:10:01;;;;;;;55.97;2.40;;;;;;;;;;5031176;28;20812;-70
2023/12/19 12:12:33;;;;;;;56.50;2.80;;;;;;;;;;5030841;28;21107;-70
2023/12/19 12:15:06;;;;;;;57.47;2.77;;;;;;;;;;5043517;28;20532;-70
2023/12/19 12:17:34;;;;;;;59.30;3.10;;;;;;;;;;5034096;28;20964;-72
2023/12/19 12:20:02;;;;;;;56.77;2.40;;;;;;;;;;5030956;28;20445;-72
2023/12/19 12:22:29;;;;;;;55.97;2.77;;;;;;;;;;5031172;28;20469;-72
2023/12/19 12:24:56;;;;;;;56.70;3.23;;;;;;;;;;5031459;28;20797;-71
2023/12/19 12:27:24;;;;;;;56.63;3.23;;;;;;;;;;5031144;28;20450;-71
2023/12/19 12:29:52;;;;;;;57.83;3.10;;;;;;;;;;5031409;28;20454;-71
2023/12/19 12:32:19;;;;;;;58.60;2.73;;;;;;;;;;5033501;28;21025;-71
2023/12/19 12:34:46;;;;;;;56.60;2.50;;;;;;;;;;5039248;28;20471;-71
2023/12/19 12:37:16;;;;;;;56.70;3.57;;;;;;;;;;5045476;28;20456;-71
2023/12/19 12:39:44;;;;;;;56.97;2.80;;;;;;;;;;5035009;28;20502;-71
2023/12/19 12:42:13;;;;;;;57.87;2.47;;;;;;;;;;5034551;28;20476;-71
2023/12/19 12:44:41;;;;;;;59.60;3.70;;;;;;;;;;5034735;28;20937;-71
2023/12/19 12:47:09;;;;;;;58.33;2.50;;;;;;;;;;5034717;28;20939;-71
2023/12/19 12:49:37;;;;;;;56.70;2.67;;;;;;;;;;5043725;28;20461;-71
2023/12/19 12:52:04;;;;;;;56.80;3.10;;;;;;;;;;5053932;28;20502;-71
2023/12/19 12:54:32;;;;;;;56.47;2.87;;;;;;;;;;5054370;28;20462;-71
2023/12/19 12:56:59;;;;;;;60.80;3.93;;;;;;;;;;5046349;28;20928;-72
2023/12/19 12:59:28;;;;;;;56.17;2.30;;;;;;;;;;5054260;28;20453;-72
2023/12/19 13:01:56;;;;;;;57.17;4.73;;;;;;;;;;5053736;28;20466;-73
2023/12/19 13:04:24;;;;;;;56.30;2.50;;;;;;;;;;5054515;28;20503;-72
2023/12/19 13:06:51;;;;;;;56.17;2.70;;;;;;;;;;5054105;28;20457;-72
2023/12/19 13:09:20;;;;;;;56.27;2.47;;;;;;;;;;5054091;28;20440;-72
2023/12/19 13:11:49;;;;;;;56.27;2.30;;;;;;;;;;5054038;28;20489;-72
2023/12/19 13:14:17;;;;;;;56.80;2.80;;;;;;;;;;5048635;28;20902;-72
2023/12/19 13:16:44;;;;;;;56.20;2.50;;;;;;;;;;5044408;28;20816;-73
2023/12/19 13:19:11;;;;;;;56.37;2.70;;;;;;;;;;5034369;28;20451;-72
2023/12/19 13:21:39;;;;;;;56.67;2.77;;;;;;;;;;5041765;28;20464;-72
2023/12/19 13:24:07;;;;;;;56.37;2.80;;;;;;;;;;5034047;28;20452;-72
2023/12/19 13:26:34;;;;;;;56.07;2.40;;;;;;;;;;5033850;28;20946;-73
2023/12/19 13:29:02;;;;;;;56.37;2.30;;;;;;;;;;5033796;28;20466;-72
2023/12/19 13:31:31;;;;;;;56.50;3.20;;;;;;;;;;5033560;28;20487;-72
2023/12/19 13:33:59;;;;;;;56.30;2.67;;;;;;;;;;5034206;28;20476;-72
2023/12/19 13:36:26;;;;;;;56.37;2.80;;;;;;;;;;5033934;28;20454;-72
2023/12/19 13:38:56;;;;;;;56.50;3.13;;;;;;;;;;5034018;28;20456;-72
2023/12/19 13:41:23;;;;;;;56.17;2.67;;;;;;;;;;5033403;28;20538;-72
2023/12/19 13:43:50;;;;;;;56.37;3.10;;;;;;;;;;5033232;28;20843;-72
2023/12/19 13:46:17;;;;;;;56.20;2.77;;;;;;;;;;5033822;28;20456;-72
2023/12/19 13:48:44;;;;;;;56.43;3.03;;;;;;;;;;5034127;28;20446;-72
2023/12/19 13:51:11;;;;;;;56.20;2.30;;;;;;;;;;5033399;28;20974;-72
2023/12/19 13:53:40;;;;;;;56.07;2.57;;;;;;;;;;5033271;28;20491;-72
2023/12/19 13:56:08;;;;;;;56.27;2.90;;;;;;;;;;5033690;28;20485;-72
2023/12/19 13:58:35;;;;;;;56.07;2.70;;;;;;;;;;5033334;28;20947;-73
2023/12/19 14:01:04;;;;;;;56.60;3.53;;;;;;;;;;5033380;28;20451;-72
2023/12/19 14:03:31;;;;;;;56.10;2.50;;;;;;;;;;5033190;28;20453;-72
2023/12/19 14:05:59;;;;;;;56.17;2.30;;;;;;;;;;5033048;28;20455;-72
2023/12/19 14:08:27;;;;;;;56.30;2.80;;;;;;;;;;5033177;28;20936;-72
2023/12/19 14:10:54;;;;;;;56.67;3.03;;;;;;;;;;5032829;28;20455;-72
2023/12/19 14:13:24;;;;;;;58.20;4.10;;;;;;;;;;5032937;28;20540;-72
2023/12/19 14:15:53;;;;;;;56.27;2.50;;;;;;;;;;5033328;28;20460;-72
2023/12/19 14:18:20;;;;;;;57.23;3.07;;;;;;;;;;5033419;28;20456;-73
2023/12/19 14:20:47;;;;;;;57.10;2.97;;;;;;;;;;5032672;28;20455;-72
2023/12/19 14:23:14;;;;;;;56.20;2.60;;;;;;;;;;5032717;28;20467;-72
2023/12/19 14:25:42;;;;;;;56.70;2.60;;;;;;;;;;5032958;28;20882;-72
2023/12/19 14:28:09;;;;;;;57.07;3.60;;;;;;;;;;5032823;28;20463;-72
2023/12/19 14:30:39;;;;;;;56.50;3.27;;;;;;;;;;5032754;28;20455;-72
2023/12/19 14:33:06;;;;;;;56.27;2.93;;;;;;;;;;5044967;28;20608;-72
2023/12/19 14:35:33;;;;;;;56.20;2.67;;;;;;;;;;5032372;28;20455;-72